createdAt,value
2022-08-07T00:01:43.649Z,1.40
2022-08-07T00:04:09.312Z,1.10
2022-08-07T00:06:45.528Z,1.00
2022-08-07T00:09:22.795Z,1.70
2022-08-07T00:11:55.648Z,1.50
2022-08-07T00:14:25.542Z,1.10
2022-08-07T00:16:58.297Z,1.60
2022-08-07T00:19:34.161Z,1.40
2022-08-07T00:22:24.558Z,1.40
2022-08-07T00:25:04.860Z,1.50
2022-08-07T00:27:35.821Z,1.63
2022-08-07T00:30:27.571Z,1.47
2022-08-07T00:32:58.241Z,1.70
2022-08-07T00:35:29.837Z,1.80
2022-08-07T00:37:58.810Z,1.43
2022-08-07T00:40:39.150Z,1.70
2022-08-07T00:43:14.027Z,1.50
2022-08-07T00:45:58.252Z,1.60
2022-08-07T00:48:31.990Z,2.63
2022-08-07T00:51:03.570Z,1.33
2022-08-07T00:53:44.171Z,1.50
2022-08-07T00:56:19.323Z,1.97
2022-08-07T00:58:49.682Z,1.43
2022-08-07T01:01:21.090Z,1.70
2022-08-07T01:03:55.675Z,1.60
2022-08-07T01:06:30.707Z,1.20
2022-08-07T01:09:01.503Z,1.40
2022-08-07T01:12:27.805Z,1.13
2022-08-07T01:14:28.525Z,1.10
2022-08-07T01:16:57.672Z,1.23
2022-08-07T01:19:32.597Z,1.20
2022-08-07T01:22:04.114Z,1.20
2022-08-07T01:24:42.180Z,1.20
2022-08-07T01:27:19.734Z,1.80
2022-08-07T01:29:48.598Z,1.33
2022-08-07T01:32:18.968Z,1.10
2022-08-07T01:34:51.784Z,1.33
2022-08-07T01:37:22.036Z,1.17
2022-08-07T01:39:53.369Z,1.30
2022-08-07T01:42:37.882Z,1.60
2022-08-07T01:45:18.396Z,1.20
2022-08-07T01:48:19.359Z,1.43
2022-08-07T01:50:46.925Z,1.17
2022-08-07T01:54:11.745Z,1.70
2022-08-07T01:56:15.138Z,1.30
2022-08-07T01:58:51.930Z,1.10
2022-08-07T02:01:59.236Z,1.50
2022-08-07T02:04:19.211Z,1.00
2022-08-07T02:06:56.549Z,1.30
2022-08-07T02:09:33.963Z,1.10
2022-08-07T02:12:22.132Z,1.00
2022-08-07T02:15:00.542Z,1.00
2022-08-07T02:17:45.405Z,1.10
2022-08-07T02:20:23.459Z,1.37
2022-08-07T02:22:59.727Z,1.37
2022-08-07T02:26:30.735Z,1.30
2022-08-07T02:28:24.595Z,1.57
2022-08-07T02:30:58.608Z,1.00
2022-08-07T02:33:33.053Z,1.20
2022-08-07T02:36:30.917Z,1.40
2022-08-07T02:39:16.783Z,1.00
2022-08-07T02:41:59.168Z,1.30
2022-08-07T02:44:34.829Z,1.33
2022-08-07T02:47:07.923Z,1.37
2022-08-07T02:49:57.796Z,1.27
2022-08-07T02:52:34.026Z,1.10
2022-08-07T02:55:15.392Z,1.20
2022-08-07T02:58:04.014Z,1.40
2022-08-07T03:00:35.644Z,1.20
2022-08-07T03:03:07.073Z,1.10
2022-08-07T03:05:45.239Z,1.37
2022-08-07T03:08:14.765Z,0.90
2022-08-07T03:10:47.363Z,1.33
2022-08-07T03:13:22.329Z,1.10
2022-08-07T03:15:58.543Z,1.03
2022-08-07T03:18:34.634Z,1.50
2022-08-07T03:21:08.187Z,1.20
2022-08-07T03:24:18.200Z,1.10
2022-08-07T03:26:33.106Z,1.20
2022-08-07T03:29:11.229Z,1.30
2022-08-07T03:31:46.676Z,1.10
2022-08-07T03:34:22.555Z,1.20
2022-08-07T03:36:59.093Z,0.97
2022-08-07T03:39:59.039Z,1.30
2022-08-07T03:42:20.135Z,1.10
2022-08-07T03:44:53.598Z,1.10
2022-08-07T03:47:28.035Z,1.60
2022-08-07T03:49:58.856Z,1.30
2022-08-07T03:52:34.007Z,1.33
2022-08-07T03:55:07.836Z,1.30
2022-08-07T03:58:35.249Z,1.37
2022-08-07T04:00:36.538Z,1.00
2022-08-07T04:03:06.199Z,1.40
2022-08-07T04:05:42.517Z,1.30
2022-08-07T04:08:20.975Z,1.40
2022-08-07T04:10:54.742Z,1.70
2022-08-07T04:14:10.680Z,1.30
2022-08-07T04:16:32.571Z,1.20
2022-08-07T04:19:12.772Z,1.37
2022-08-07T04:21:58.768Z,1.07
2022-08-07T04:24:39.244Z,1.00
2022-08-07T04:27:20.299Z,1.00
2022-08-07T04:30:01.687Z,1.30
2022-08-07T04:32:58.392Z,1.13
2022-08-07T04:35:35.420Z,1.60
2022-08-07T04:38:08.431Z,1.30
2022-08-07T04:40:51.193Z,1.10
2022-08-07T04:44:09.729Z,1.43
2022-08-07T04:46:26.016Z,1.30
2022-08-07T04:49:17.989Z,1.10
2022-08-07T04:51:55.533Z,1.47
2022-08-07T04:54:32.538Z,1.30
2022-08-07T04:58:13.160Z,1.57
2022-08-07T05:00:09.563Z,1.30
2022-08-07T05:02:49.542Z,1.20
2022-08-07T05:05:53.993Z,1.37
2022-08-07T05:08:19.309Z,1.30
2022-08-07T05:11:19.422Z,1.60
2022-08-07T05:14:53.679Z,1.53
2022-08-07T05:16:47.619Z,1.40
2022-08-07T05:19:25.785Z,1.10
2022-08-07T05:22:05.597Z,1.30
2022-08-07T05:24:42.000Z,1.30
2022-08-07T05:28:03.104Z,1.23
2022-08-07T05:30:04.401Z,1.33
2022-08-07T05:32:33.925Z,1.63
2022-08-07T05:35:03.802Z,1.50
2022-08-07T05:37:40.924Z,1.03
2022-08-07T05:40:17.763Z,1.40
2022-08-07T05:42:55.940Z,1.27
2022-08-07T05:45:47.407Z,1.47
2022-08-07T05:48:15.371Z,1.20
2022-08-07T05:50:47.451Z,1.20
2022-08-07T05:54:13.791Z,1.60
2022-08-07T05:56:12.536Z,1.87
2022-08-07T05:58:52.857Z,1.30
2022-08-07T06:01:27.123Z,1.30
2022-08-07T06:04:05.673Z,1.37
2022-08-07T06:06:46.074Z,1.40
2022-08-07T06:09:18.945Z,1.23
2022-08-07T06:11:50.269Z,1.83
2022-08-07T06:14:21.274Z,1.53
2022-08-07T06:16:59.736Z,1.00
2022-08-07T06:19:51.753Z,1.10
2022-08-07T06:22:27.396Z,1.10
2022-08-07T06:25:10.137Z,1.03
2022-08-07T06:28:00.655Z,1.17
2022-08-07T06:30:35.948Z,1.03
2022-08-07T06:33:16.647Z,0.80
2022-08-07T06:36:12.001Z,1.23
2022-08-07T06:38:39.511Z,1.00
2022-08-07T06:42:00.571Z,0.90
2022-08-07T06:44:24.391Z,0.97
2022-08-07T06:47:09.846Z,1.13
2022-08-07T06:49:52.203Z,1.13
2022-08-07T06:52:35.717Z,1.10
2022-08-07T06:55:32.250Z,1.17
2022-08-07T06:58:04.289Z,0.80
2022-08-07T07:00:39.675Z,0.90
2022-08-07T07:03:14.564Z,0.90
2022-08-07T07:06:05.122Z,1.40
2022-08-07T07:08:39.718Z,1.30
2022-08-07T07:12:08.357Z,1.10
2022-08-07T07:14:08.502Z,0.80
2022-08-07T07:16:49.495Z,1.00
2022-08-07T07:19:55.502Z,1.40
2022-08-07T07:22:35.955Z,1.20
2022-08-07T07:25:02.913Z,0.87
2022-08-07T07:27:56.397Z,1.10
2022-08-07T07:30:39.880Z,1.83
2022-08-07T07:33:11.972Z,1.70
2022-08-07T07:35:54.341Z,1.37
2022-08-07T07:38:35.810Z,1.13
2022-08-07T07:41:09.218Z,1.23
2022-08-07T07:44:14.244Z,1.10
2022-08-07T07:46:37.246Z,0.80
2022-08-07T07:50:35.275Z,1.33
2022-08-07T07:52:16.107Z,0.90
2022-08-07T07:54:51.377Z,1.20
2022-08-07T07:57:50.369Z,0.90
2022-08-07T08:00:14.917Z,1.10
2022-08-07T08:03:01.055Z,0.80
2022-08-07T08:05:50.862Z,1.00
2022-08-07T08:08:34.887Z,0.90
2022-08-07T08:11:08.413Z,0.90
2022-08-07T08:13:53.136Z,0.97
2022-08-07T08:16:29.829Z,0.97
2022-08-07T08:19:18.048Z,0.70
2022-08-07T08:22:10.545Z,0.90
2022-08-07T08:25:18.452Z,1.03
2022-08-07T08:27:56.687Z,1.40
2022-08-07T08:30:27.870Z,0.87
2022-08-07T08:33:00.511Z,1.13
2022-08-07T08:35:39.466Z,1.20
2022-08-07T08:38:18.043Z,1.10
2022-08-07T08:40:55.667Z,0.87
2022-08-07T08:43:42.847Z,0.90
2022-08-07T08:46:34.128Z,1.00
2022-08-07T08:49:17.532Z,0.80
2022-08-07T08:52:12.498Z,1.10
2022-08-07T08:54:48.595Z,1.20
2022-08-07T08:57:30.317Z,1.00
2022-08-07T09:00:06.730Z,2.30
2022-08-07T09:02:42.185Z,1.10
2022-08-07T09:05:37.437Z,1.37
2022-08-07T09:08:28.184Z,0.93
2022-08-07T09:11:10.672Z,0.80
2022-08-07T09:13:55.781Z,1.00
2022-08-07T09:16:41.828Z,0.80
2022-08-07T09:19:44.557Z,0.93
2022-08-07T09:24:28.741Z,2.30
2022-08-07T09:25:17.654Z,1.00
2022-08-07T09:28:00.484Z,1.00
2022-08-07T09:30:38.793Z,1.30
2022-08-07T09:33:40.944Z,1.00
2022-08-07T09:36:15.624Z,1.00
2022-08-07T09:38:54.018Z,0.77
2022-08-07T09:41:36.165Z,1.07
2022-08-07T09:44:32.676Z,0.80
2022-08-07T09:47:52.126Z,1.10
2022-08-07T09:50:19.487Z,0.90
2022-08-07T09:52:52.167Z,1.10
2022-08-07T09:55:29.467Z,0.80
2022-08-07T09:58:32.601Z,0.80
2022-08-07T10:01:14.859Z,1.30
2022-08-07T10:04:14.750Z,0.90
2022-08-07T10:07:25.883Z,0.80
2022-08-07T10:10:11.889Z,0.83
2022-08-07T10:13:29.581Z,1.00
2022-08-07T10:16:16.869Z,0.90
2022-08-07T10:19:11.212Z,0.90
2022-08-07T10:22:14.005Z,0.90
2022-08-07T10:25:08.930Z,1.00
2022-08-07T10:27:51.207Z,1.20
2022-08-07T10:30:28.427Z,0.90
2022-08-07T10:34:06.777Z,0.80
2022-08-07T10:36:29.916Z,1.10
2022-08-07T10:39:05.455Z,1.67
2022-08-07T10:41:51.815Z,1.00
2022-08-07T10:44:38.486Z,0.80
2022-08-07T10:47:27.114Z,1.00
2022-08-07T10:50:07.298Z,0.80
2022-08-07T10:52:51.336Z,0.90
2022-08-07T10:55:37.039Z,0.80
2022-08-07T10:58:31.904Z,0.90
2022-08-07T11:01:17.855Z,1.13
2022-08-07T11:04:16.502Z,1.00
2022-08-07T11:06:59.512Z,1.00
2022-08-07T11:10:09.677Z,0.80
2022-08-07T11:12:31.532Z,0.70
2022-08-07T11:15:14.681Z,1.00
2022-08-07T11:17:53.890Z,0.80
2022-08-07T11:20:31.888Z,0.80
2022-08-07T11:23:09.301Z,0.80
2022-08-07T11:25:47.953Z,0.90
2022-08-07T11:28:22.241Z,0.80
2022-08-07T11:30:59.133Z,0.90
2022-08-07T11:33:54.245Z,0.80
2022-08-07T11:36:40.335Z,1.00
2022-08-07T11:39:19.470Z,0.80
2022-08-07T11:42:01.541Z,0.87
2022-08-07T11:44:52.487Z,0.80
2022-08-07T11:47:56.292Z,0.90
2022-08-07T11:50:44.685Z,1.03
2022-08-07T11:54:01.121Z,0.93
2022-08-07T11:56:43.743Z,1.20
2022-08-07T12:00:10.247Z,1.00
2022-08-07T12:02:34.037Z,1.40
2022-08-07T12:05:15.374Z,0.90
2022-08-07T12:08:04.114Z,0.80
2022-08-07T12:10:42.155Z,0.70
2022-08-07T12:13:17.097Z,0.90
2022-08-07T12:16:06.533Z,1.00
2022-08-07T12:18:45.339Z,0.70
2022-08-07T12:22:35.877Z,0.90
2022-08-07T12:24:37.751Z,0.90
2022-08-07T12:27:16.257Z,0.93
2022-08-07T12:29:52.704Z,0.87
2022-08-07T12:32:28.913Z,0.93
2022-08-07T12:35:00.898Z,1.00
2022-08-07T12:38:09.581Z,0.90
2022-08-07T12:40:47.107Z,0.80
2022-08-07T12:44:02.414Z,0.87
2022-08-07T12:46:15.857Z,0.77
2022-08-07T12:49:09.820Z,0.90
2022-08-07T12:51:51.481Z,0.83
2022-08-07T12:54:38.842Z,0.80
2022-08-07T12:57:11.824Z,0.90
2022-08-07T12:59:55.693Z,0.90
2022-08-07T13:02:51.222Z,0.80
2022-08-07T13:06:02.847Z,0.73
2022-08-07T13:08:50.671Z,0.80
2022-08-07T13:12:03.473Z,1.10
2022-08-07T13:14:30.134Z,0.67
2022-08-07T13:17:11.329Z,0.83
2022-08-07T13:19:50.629Z,0.70
2022-08-07T13:22:31.026Z,0.63
2022-08-07T13:25:04.210Z,0.80
2022-08-07T13:28:11.369Z,0.73
2022-08-07T13:30:41.301Z,0.70
2022-08-07T13:34:31.488Z,0.70
2022-08-07T13:36:17.769Z,0.90
2022-08-07T13:38:56.409Z,0.73
2022-08-07T13:41:33.233Z,0.70
2022-08-07T13:44:05.299Z,0.87
2022-08-07T13:46:49.311Z,0.90
2022-08-07T13:50:33.660Z,0.80
2022-08-07T13:52:32.107Z,1.30
2022-08-07T13:55:06.968Z,0.80
2022-08-07T13:57:39.506Z,0.73
2022-08-07T14:00:50.518Z,0.80
2022-08-07T14:03:41.279Z,0.90
2022-08-07T14:06:16.839Z,0.90
2022-08-07T14:08:53.626Z,1.00
2022-08-07T14:11:24.217Z,0.73
2022-08-07T14:14:04.532Z,0.70
2022-08-07T14:16:41.246Z,0.80
2022-08-07T14:20:40.178Z,0.80
2022-08-07T14:22:34.057Z,0.90
2022-08-07T14:25:08.261Z,1.00
2022-08-07T14:28:11.359Z,0.97
2022-08-07T14:30:33.978Z,1.30
2022-08-07T14:33:05.442Z,0.93
2022-08-07T14:35:44.798Z,1.00
2022-08-07T14:38:30.847Z,0.93
2022-08-07T14:41:02.195Z,0.80
2022-08-07T14:43:59.027Z,0.70
2022-08-07T14:46:31.187Z,0.90
2022-08-07T14:49:17.596Z,1.00
2022-08-07T14:52:03.212Z,1.00
2022-08-07T14:54:43.166Z,1.00
2022-08-07T14:57:15.022Z,1.00
2022-08-07T15:00:04.395Z,1.23
2022-08-07T15:02:37.126Z,0.80
2022-08-07T15:05:20.363Z,0.70
2022-08-07T15:07:53.645Z,0.97
2022-08-07T15:10:27.175Z,1.30
2022-08-07T15:13:06.400Z,1.60
2022-08-07T15:15:38.898Z,0.90
2022-08-07T15:18:14.566Z,0.80
2022-08-07T15:25:13.103Z,1.00
2022-08-07T15:26:44.953Z,0.90
2022-08-07T15:30:08.801Z,0.73
2022-08-07T15:32:11.742Z,0.87
2022-08-07T15:34:50.139Z,0.67
2022-08-07T15:37:22.157Z,0.97
2022-08-07T15:40:01.163Z,0.77
2022-08-07T15:42:57.997Z,0.70
2022-08-07T15:45:57.442Z,0.67
2022-08-07T15:48:26.166Z,0.90
2022-08-07T15:51:09.583Z,0.80
2022-08-07T15:53:53.219Z,0.80
2022-08-07T15:56:33.345Z,0.97
2022-08-07T15:59:05.698Z,0.80
2022-08-07T16:01:38.745Z,0.70
2022-08-07T16:04:14.748Z,0.70
2022-08-07T16:06:50.900Z,0.70
2022-08-07T16:09:23.867Z,0.70
2022-08-07T16:12:28.737Z,1.00
2022-08-07T16:15:57.821Z,0.70
2022-08-07T16:18:14.365Z,0.60
2022-08-07T16:22:01.733Z,0.80
2022-08-07T16:24:03.529Z,0.90
2022-08-07T16:26:59.783Z,0.87
2022-08-07T16:30:10.356Z,0.80
2022-08-07T16:32:46.180Z,0.70
2022-08-07T16:35:51.554Z,0.80
2022-08-07T16:39:00.591Z,0.80
2022-08-07T16:42:08.817Z,0.83
2022-08-07T16:45:23.292Z,0.83
2022-08-07T16:48:28.604Z,0.73
2022-08-07T16:52:01.344Z,0.80
2022-08-07T16:54:32.786Z,0.90
2022-08-07T16:57:15.530Z,0.80
2022-08-07T16:59:52.685Z,0.90
2022-08-07T17:02:53.611Z,0.70
2022-08-07T17:06:19.975Z,0.90
2022-08-07T17:09:09.484Z,1.00
2022-08-07T17:12:04.434Z,1.00
2022-08-07T17:14:45.234Z,1.20
2022-08-07T17:17:46.136Z,0.83
2022-08-07T17:20:29.630Z,0.67
2022-08-07T17:23:03.827Z,0.90
2022-08-07T17:25:52.061Z,0.93
2022-08-07T17:28:31.097Z,0.90
2022-08-07T17:31:16.302Z,1.00
2022-08-07T17:34:18.056Z,0.83
2022-08-07T17:36:57.868Z,0.87
2022-08-07T17:39:57.809Z,1.03
2022-08-07T17:42:59.629Z,0.90
2022-08-07T17:45:35.228Z,1.00
2022-08-07T17:48:11.229Z,0.87
2022-08-07T17:50:58.325Z,1.13
2022-08-07T17:54:01.768Z,0.87
2022-08-07T17:56:33.624Z,0.90
2022-08-07T17:59:17.015Z,0.90
2022-08-07T18:01:56.752Z,0.83
2022-08-07T18:04:34.687Z,0.87
2022-08-07T18:07:20.586Z,0.97
2022-08-07T18:10:06.197Z,0.93
2022-08-07T18:13:11.250Z,0.87
2022-08-07T18:15:59.916Z,1.13
2022-08-07T18:18:47.271Z,1.03
2022-08-07T18:21:51.805Z,1.00
2022-08-07T18:24:34.533Z,1.10
2022-08-07T18:27:17.467Z,0.90
2022-08-07T18:30:31.353Z,0.80
2022-08-07T18:33:27.968Z,1.30
2022-08-07T18:36:08.665Z,1.00
2022-08-07T18:38:58.987Z,1.10
2022-08-07T18:41:45.675Z,1.10
2022-08-07T18:44:32.550Z,0.90
2022-08-07T18:47:22.487Z,1.07
2022-08-07T18:50:31.641Z,0.90
2022-08-07T18:53:06.434Z,1.20
2022-08-07T18:55:57.052Z,1.07
2022-08-07T18:58:52.242Z,1.00
2022-08-07T19:02:20.002Z,0.80
2022-08-07T19:04:56.096Z,1.07
2022-08-07T19:07:34.998Z,1.03
2022-08-07T19:10:18.319Z,1.00
2022-08-07T19:12:59.472Z,0.93
2022-08-07T19:16:05.064Z,1.00
2022-08-07T19:18:45.035Z,1.00
2022-08-07T19:21:44.047Z,1.10
2022-08-07T19:24:30.209Z,1.63
2022-08-07T19:28:56.587Z,1.10
2022-08-07T19:31:02.150Z,1.20
2022-08-07T19:32:51.234Z,1.00
2022-08-07T19:35:24.310Z,1.10
2022-08-07T19:37:58.210Z,0.90
2022-08-07T19:40:30.933Z,1.23
2022-08-07T19:43:09.153Z,1.30
2022-08-07T19:46:06.231Z,1.20
2022-08-07T19:48:42.959Z,1.17
2022-08-07T19:51:19.558Z,1.47
2022-08-07T19:54:31.810Z,1.10
2022-08-07T19:58:00.369Z,1.30
2022-08-07T19:59:41.376Z,1.40
2022-08-07T20:02:19.846Z,1.30
2022-08-07T20:05:00.825Z,1.30
2022-08-07T20:07:46.554Z,1.70
2022-08-07T20:10:36.181Z,1.33
2022-08-07T20:13:23.091Z,1.93
2022-08-07T20:15:55.275Z,1.83
2022-08-07T20:18:33.687Z,2.17
2022-08-07T20:21:14.237Z,1.30
2022-08-07T20:23:57.904Z,1.77
2022-08-07T20:26:32.816Z,1.23
2022-08-07T20:29:47.281Z,1.07
2022-08-07T20:32:02.274Z,1.43
2022-08-07T20:34:50.168Z,1.73
2022-08-07T20:37:26.115Z,2.03
2022-08-07T20:40:02.539Z,1.40
2022-08-07T20:42:38.423Z,1.40
2022-08-07T20:45:33.473Z,2.13
2022-08-07T20:48:02.104Z,1.37
2022-08-07T20:50:31.792Z,1.37
2022-08-07T20:53:00.577Z,1.90
2022-08-07T20:55:32.279Z,2.20
2022-08-07T20:58:19.170Z,1.20
2022-08-07T21:00:56.065Z,1.50
2022-08-07T21:03:26.192Z,1.17
2022-08-07T21:05:58.353Z,2.20
2022-08-07T21:08:36.719Z,1.77
2022-08-07T21:11:11.063Z,1.90
2022-08-07T21:14:16.387Z,1.70
2022-08-07T21:16:56.403Z,1.50
2022-08-07T21:19:32.370Z,1.80
2022-08-07T21:22:19.978Z,1.73
2022-08-07T21:25:04.822Z,1.57
2022-08-07T21:28:01.899Z,2.07
2022-08-07T21:30:43.390Z,1.80
2022-08-07T21:33:19.064Z,1.73
2022-08-07T21:36:05.103Z,1.70
2022-08-07T21:38:50.114Z,1.70
2022-08-07T21:41:27.800Z,1.87
2022-08-07T21:44:14.244Z,2.30
2022-08-07T21:47:00.929Z,1.50
2022-08-07T21:50:01.244Z,2.20
2022-08-07T21:52:35.088Z,1.93
2022-08-07T21:55:12.740Z,1.63
2022-08-07T21:58:03.400Z,1.47
2022-08-07T22:00:32.875Z,2.10
2022-08-07T22:03:11.031Z,1.80
2022-08-07T22:05:50.732Z,1.37
2022-08-07T22:08:23.216Z,1.97
2022-08-07T22:10:55.842Z,2.33
2022-08-07T22:13:50.964Z,1.60
2022-08-07T22:16:39.548Z,1.67
2022-08-07T22:19:18.015Z,1.97
2022-08-07T22:22:05.141Z,2.50
2022-08-07T22:24:53.395Z,2.23
2022-08-07T22:28:02.889Z,2.10
2022-08-07T22:30:17.844Z,2.00
2022-08-07T22:33:02.283Z,1.80
2022-08-07T22:35:41.857Z,2.07
2022-08-07T22:38:24.320Z,1.83
2022-08-07T22:41:00.127Z,1.70
2022-08-07T22:43:37.230Z,2.37
2022-08-07T22:47:02.191Z,2.47
2022-08-07T22:49:54.305Z,2.00
2022-08-07T22:52:57.780Z,1.80
2022-08-07T22:55:44.498Z,2.10
2022-08-07T22:59:05.006Z,2.83
2022-08-07T23:01:59.066Z,2.50
2022-08-07T23:04:58.647Z,1.77
2022-08-07T23:07:50.010Z,2.37
2022-08-07T23:10:41.248Z,2.00
2022-08-07T23:13:49.245Z,1.90
2022-08-07T23:16:55.295Z,3.30
2022-08-07T23:19:58.048Z,2.33
2022-08-07T23:22:39.161Z,2.53
2022-08-07T23:25:18.635Z,2.40
2022-08-07T23:28:22.948Z,1.93
2022-08-07T23:31:13.920Z,1.70
2022-08-07T23:34:37.751Z,2.07
2022-08-07T23:38:01.558Z,3.10
2022-08-07T23:40:35.952Z,2.57
2022-08-07T23:43:51.432Z,2.53
2022-08-07T23:46:39.994Z,2.10
2022-08-07T23:49:50.055Z,2.63
2022-08-07T23:53:06.241Z,2.90
2022-08-07T23:55:52.932Z,2.10
2022-08-07T23:58:21.671Z,3.20
